createdAt,value
2017-07-07T00:00:02.928Z,0
2017-07-07T00:05:02.626Z,0
2017-07-07T00:10:03.053Z,0
2017-07-07T00:15:02.494Z,0
2017-07-07T00:20:02.830Z,0
2017-07-07T00:25:03.291Z,0
2017-07-07T00:30:02.891Z,0
2017-07-07T00:35:02.575Z,0
2017-07-07T00:40:03.182Z,0
2017-07-07T00:45:02.650Z,0
2017-07-07T00:50:02.905Z,0
2017-07-07T00:55:03.401Z,0
2017-07-07T01:00:02.877Z,0
2017-07-07T01:05:03.272Z,0
2017-07-07T01:10:02.624Z,0
2017-07-07T01:15:02.904Z,0
2017-07-07T01:20:03.190Z,0
2017-07-07T01:25:02.506Z,0
2017-07-07T01:30:03.006Z,0
2017-07-07T01:35:03.277Z,0
2017-07-07T01:40:02.541Z,0
2017-07-07T01:45:02.835Z,0
2017-07-07T01:50:03.368Z,0
2017-07-07T01:55:02.868Z,0
2017-07-07T02:00:03.531Z,0
2017-07-07T02:05:02.988Z,0
2017-07-07T02:10:02.524Z,0
2017-07-07T02:15:02.954Z,0
2017-07-07T02:20:03.426Z,0
2017-07-07T02:25:02.997Z,0
2017-07-07T02:30:03.434Z,0
2017-07-07T02:35:02.872Z,0
2017-07-07T02:40:03.280Z,0
2017-07-07T02:45:02.633Z,3
2017-07-07T02:50:03.332Z,9
2017-07-07T02:55:02.618Z,0
2017-07-07T03:00:03.054Z,0
2017-07-07T03:05:02.507Z,7
2017-07-07T03:10:03.161Z,0
2017-07-07T03:15:02.539Z,0
2017-07-07T03:20:03.050Z,0
2017-07-07T03:25:03.409Z,1
2017-07-07T03:30:02.644Z,1
2017-07-07T03:35:03.174Z,2
2017-07-07T03:40:02.761Z,2
2017-07-07T03:45:03.420Z,3
2017-07-07T03:50:02.908Z,2
2017-07-07T03:55:03.461Z,0
2017-07-07T04:00:02.754Z,0
2017-07-07T04:05:03.209Z,0
2017-07-07T04:10:02.846Z,1
2017-07-07T04:15:03.335Z,0
2017-07-07T04:20:02.828Z,0
2017-07-07T04:25:03.300Z,0
2017-07-07T04:30:03.365Z,0
2017-07-07T04:35:02.663Z,0
2017-07-07T04:40:03.245Z,0
2017-07-07T04:45:02.502Z,0
2017-07-07T04:50:02.839Z,0
2017-07-07T04:55:03.335Z,0
2017-07-07T05:00:02.832Z,0
2017-07-07T05:05:03.213Z,0
2017-07-07T05:10:02.717Z,0
2017-07-07T05:15:03.264Z,0
2017-07-07T05:20:02.620Z,0
2017-07-07T05:25:02.922Z,0
2017-07-07T05:30:03.432Z,2
2017-07-07T05:35:02.789Z,0
2017-07-07T05:40:03.135Z,0
2017-07-07T05:45:02.547Z,1
2017-07-07T05:50:03.057Z,2
2017-07-07T05:55:02.576Z,5
2017-07-07T06:00:02.844Z,3
2017-07-07T06:05:03.197Z,3
2017-07-07T06:10:02.576Z,2
2017-07-07T06:15:03.071Z,1
2017-07-07T06:20:03.384Z,3
2017-07-07T06:25:02.860Z,4
2017-07-07T06:30:03.288Z,8
2017-07-07T06:35:02.589Z,3
2017-07-07T06:40:03.170Z,5
2017-07-07T06:45:02.749Z,3
2017-07-07T06:50:03.098Z,3
2017-07-07T06:55:03.468Z,7
2017-07-07T07:00:02.762Z,5
2017-07-07T07:05:03.075Z,4
2017-07-07T07:10:03.418Z,4
2017-07-07T07:15:02.626Z,8
2017-07-07T07:20:02.940Z,7
2017-07-07T07:25:02.492Z,1
2017-07-07T07:30:02.884Z,2
2017-07-07T07:35:03.207Z,3
2017-07-07T07:40:02.553Z,3
2017-07-07T07:45:03.024Z,3
2017-07-07T07:50:02.491Z,5
2017-07-07T07:55:02.994Z,3
2017-07-07T08:00:03.415Z,5
2017-07-07T08:05:02.678Z,5
2017-07-07T08:10:03.132Z,3
2017-07-07T08:15:03.427Z,3
2017-07-07T08:20:02.931Z,3
2017-07-07T08:25:02.536Z,3
2017-07-07T08:30:03.013Z,1
2017-07-07T08:35:03.420Z,5
2017-07-07T08:40:02.768Z,5
2017-07-07T08:45:02.998Z,0
2017-07-07T08:50:03.340Z,1
2017-07-07T08:55:02.893Z,0
2017-07-07T09:00:03.326Z,0
2017-07-07T09:05:02.830Z,3
2017-07-07T09:10:03.375Z,4
2017-07-07T09:15:02.816Z,3
2017-07-07T09:20:03.260Z,5
2017-07-07T09:25:02.601Z,3
2017-07-07T09:30:03.105Z,2
2017-07-07T09:35:03.551Z,2
2017-07-07T09:40:02.912Z,4
2017-07-07T09:45:03.159Z,2
2017-07-07T09:50:02.635Z,3
2017-07-07T09:55:03.014Z,7
2017-07-07T10:00:02.521Z,4
2017-07-07T10:05:03.165Z,4
2017-07-07T10:10:02.689Z,3
2017-07-07T10:15:03.148Z,1
2017-07-07T10:20:02.477Z,3
2017-07-07T10:25:02.935Z,3
2017-07-07T10:30:03.205Z,3
2017-07-07T10:35:02.603Z,2
2017-07-07T10:40:03.154Z,4
2017-07-07T10:45:02.810Z,6
2017-07-07T10:50:03.094Z,5
2017-07-07T10:55:03.401Z,6
2017-07-07T11:00:02.867Z,5
2017-07-07T11:05:03.187Z,3
2017-07-07T11:10:02.543Z,4
2017-07-07T11:15:02.817Z,5
2017-07-07T11:20:03.215Z,3
2017-07-07T11:25:02.552Z,2
2017-07-07T11:30:02.942Z,4
2017-07-07T11:35:03.366Z,3
2017-07-07T11:40:02.870Z,5
2017-07-07T11:45:03.385Z,6
2017-07-07T11:50:02.890Z,8
2017-07-07T11:55:03.366Z,6
2017-07-07T12:00:02.634Z,4
2017-07-07T12:05:02.956Z,6
2017-07-07T12:10:03.384Z,6
2017-07-07T12:15:02.854Z,6
2017-07-07T12:20:03.353Z,5
2017-07-07T12:25:02.815Z,7
2017-07-07T12:30:03.215Z,4
2017-07-07T12:35:02.816Z,6
2017-07-07T12:40:03.172Z,7
2017-07-07T12:45:02.589Z,9
2017-07-07T12:50:02.866Z,8
2017-07-07T12:55:03.211Z,6
2017-07-07T13:00:02.486Z,7
2017-07-07T13:05:02.996Z,6
2017-07-07T13:10:03.315Z,6
2017-07-07T13:15:02.605Z,6
2017-07-07T13:20:03.071Z,5
2017-07-07T13:25:03.359Z,5
2017-07-07T13:30:02.901Z,4
2017-07-07T13:35:03.164Z,7
2017-07-07T13:40:02.541Z,3
2017-07-07T13:45:02.929Z,4
2017-07-07T13:50:03.240Z,6
2017-07-07T13:55:02.705Z,3
2017-07-07T14:00:03.078Z,8
2017-07-07T14:05:02.533Z,7
2017-07-07T14:10:03.079Z,12
2017-07-07T14:15:02.468Z,5
2017-07-07T14:20:02.737Z,6
2017-07-07T14:25:03.055Z,6
2017-07-07T14:30:03.606Z,9
2017-07-07T14:35:02.951Z,8
2017-07-07T14:40:03.341Z,6
2017-07-07T14:45:02.802Z,8
2017-07-07T14:50:03.111Z,11
2017-07-07T14:55:02.880Z,10
2017-07-07T15:00:03.217Z,7
2017-07-07T15:05:02.728Z,8
2017-07-07T15:10:03.125Z,10
2017-07-07T15:15:02.590Z,8
2017-07-07T15:20:03.091Z,9
2017-07-07T15:25:03.411Z,9
2017-07-07T15:30:02.815Z,6
2017-07-07T15:35:03.119Z,7
2017-07-07T15:40:03.423Z,6
2017-07-07T15:45:02.874Z,9
2017-07-07T15:50:03.366Z,8
2017-07-07T15:55:02.616Z,7
2017-07-07T16:00:03.096Z,7
2017-07-07T16:05:02.568Z,9
2017-07-07T16:10:03.145Z,5
2017-07-07T16:15:02.628Z,8
2017-07-07T16:20:02.984Z,5
2017-07-07T16:25:03.391Z,5
2017-07-07T16:30:02.683Z,6
2017-07-07T16:35:03.054Z,6
2017-07-07T16:40:02.595Z,5
2017-07-07T16:45:03.043Z,5
2017-07-07T16:50:03.389Z,3
2017-07-07T16:55:02.889Z,3
2017-07-07T17:00:03.216Z,7
2017-07-07T17:05:02.632Z,7
2017-07-07T17:10:02.981Z,10
2017-07-07T17:15:03.372Z,7
2017-07-07T17:20:02.644Z,4
2017-07-07T17:25:02.968Z,8
2017-07-07T17:30:03.406Z,7
2017-07-07T17:35:02.770Z,6
2017-07-07T17:40:03.116Z,7
2017-07-07T17:45:03.462Z,9
2017-07-07T17:50:02.766Z,4
2017-07-07T17:55:03.070Z,4
2017-07-07T18:00:02.577Z,7
2017-07-07T18:05:03.046Z,7
2017-07-07T18:10:03.432Z,6
2017-07-07T18:15:02.775Z,7
2017-07-07T18:20:03.104Z,7
2017-07-07T18:25:02.573Z,4
2017-07-07T18:30:03.128Z,5
2017-07-07T18:35:02.815Z,3
2017-07-07T18:40:03.184Z,5
2017-07-07T18:45:02.625Z,5
2017-07-07T18:50:02.992Z,9
2017-07-07T18:55:03.268Z,4
2017-07-07T19:00:03.484Z,4
2017-07-07T19:05:03.061Z,3
2017-07-07T19:10:02.484Z,7
2017-07-07T19:15:02.882Z,5
2017-07-07T19:20:03.191Z,5
2017-07-07T19:25:02.487Z,4
2017-07-07T19:30:02.950Z,4
2017-07-07T19:35:03.452Z,3
2017-07-07T19:40:02.786Z,6
2017-07-07T19:45:03.198Z,4
2017-07-07T19:50:02.471Z,6
2017-07-07T19:55:02.808Z,5
2017-07-07T20:00:03.095Z,3
2017-07-07T20:05:02.497Z,4
2017-07-07T20:10:03.036Z,3
2017-07-07T20:15:02.561Z,2
2017-07-07T20:20:03.122Z,3
2017-07-07T20:25:02.612Z,2
2017-07-07T20:30:03.122Z,1
2017-07-07T20:35:03.408Z,1
2017-07-07T20:40:02.849Z,0
2017-07-07T20:45:03.187Z,0
2017-07-07T20:50:02.628Z,0
2017-07-07T20:55:02.937Z,2
2017-07-07T21:00:03.277Z,0
2017-07-07T21:05:02.755Z,0
2017-07-07T21:10:03.200Z,0
2017-07-07T21:15:02.667Z,0
2017-07-07T21:20:03.017Z,0
2017-07-07T21:25:02.586Z,0
2017-07-07T21:30:03.177Z,0
2017-07-07T21:35:02.683Z,0
2017-07-07T21:40:03.213Z,0
2017-07-07T21:45:02.706Z,0
2017-07-07T21:50:03.147Z,0
2017-07-07T21:55:03.417Z,0
2017-07-07T22:00:02.917Z,0
2017-07-07T22:05:03.255Z,0
2017-07-07T22:10:02.821Z,0
2017-07-07T22:15:03.282Z,0
2017-07-07T22:20:02.745Z,0
2017-07-07T22:25:03.226Z,0
2017-07-07T22:30:02.524Z,0
2017-07-07T22:35:02.858Z,0
2017-07-07T22:40:03.165Z,0
2017-07-07T22:45:02.722Z,0
2017-07-07T22:50:03.480Z,0
2017-07-07T22:55:02.753Z,0
2017-07-07T23:00:03.188Z,0
2017-07-07T23:05:02.549Z,0
2017-07-07T23:10:02.903Z,0
2017-07-07T23:15:03.295Z,0
2017-07-07T23:20:02.594Z,0
2017-07-07T23:25:03.098Z,0
2017-07-07T23:30:02.438Z,0
2017-07-07T23:35:02.704Z,0
2017-07-07T23:40:03.223Z,0
2017-07-07T23:45:02.621Z,0
2017-07-07T23:50:02.974Z,0
2017-07-07T23:55:03.264Z,0
